createdAt,value
2023-05-11T00:02:25.851Z,99.90
2023-05-11T00:07:29.303Z,99.90
2023-05-11T00:12:34.795Z,99.90
2023-05-11T00:17:38.165Z,99.90
2023-05-11T00:22:44.048Z,99.90
2023-05-11T00:27:49.589Z,99.90
2023-05-11T00:32:53.725Z,99.90
2023-05-11T00:37:57.097Z,99.90
2023-05-11T00:43:01.783Z,99.90
2023-05-11T00:48:06.177Z,99.90
2023-05-11T00:53:11.487Z,99.90
2023-05-11T00:58:16.812Z,99.90
2023-05-11T01:03:20.109Z,99.90
2023-05-11T01:08:32.248Z,99.90
2023-05-11T01:13:42.833Z,99.90
2023-05-11T01:18:52.698Z,99.90
2023-05-11T01:24:37.368Z,99.90
2023-05-11T01:30:03.607Z,99.90
2023-05-11T01:35:13.811Z,99.90
2023-05-11T01:40:21.612Z,99.90
2023-05-11T01:45:26.900Z,99.90
2023-05-11T01:50:32.212Z,99.90
2023-05-11T01:55:36.345Z,99.90
2023-05-11T02:00:40.724Z,99.90
2023-05-11T02:05:47.446Z,99.90
2023-05-11T02:10:53.315Z,99.90
2023-05-11T02:15:57.756Z,99.90
2023-05-11T02:21:04.690Z,99.90
2023-05-11T02:26:10.648Z,99.90
2023-05-11T02:31:19.541Z,99.90
2023-05-11T02:36:25.966Z,99.90
2023-05-11T02:41:33.287Z,99.90
2023-05-11T02:46:38.773Z,99.90
2023-05-11T02:51:45.858Z,99.90
2023-05-11T02:56:51.295Z,99.90
2023-05-11T03:01:55.444Z,99.90
2023-05-11T03:07:00.866Z,99.90
2023-05-11T03:12:04.568Z,99.90
2023-05-11T03:17:11.421Z,99.90
2023-05-11T03:22:16.608Z,99.90
2023-05-11T03:27:21.949Z,99.90
2023-05-11T03:32:25.669Z,99.90
2023-05-11T03:37:31.779Z,99.90
2023-05-11T03:42:37.653Z,99.90
2023-05-11T03:47:42.948Z,99.90
2023-05-11T03:52:49.149Z,99.90
2023-05-11T03:57:52.934Z,99.90
2023-05-11T04:02:56.512Z,99.90
2023-05-11T04:08:02.553Z,99.90
2023-05-11T04:13:06.191Z,99.90
2023-05-11T04:18:09.853Z,99.90
2023-05-11T04:23:16.983Z,99.90
2023-05-11T04:28:20.580Z,99.90
2023-05-11T04:33:24.851Z,99.90
2023-05-11T04:38:31.018Z,99.90
2023-05-11T04:43:34.366Z,99.90
2023-05-11T04:48:38.135Z,99.90
2023-05-11T04:53:42.864Z,99.90
2023-05-11T04:58:47.017Z,99.90
2023-05-11T05:03:50.819Z,99.90
2023-05-11T05:08:56.092Z,99.90
2023-05-11T05:13:59.482Z,99.90
2023-05-11T05:19:03.094Z,99.90
2023-05-11T05:24:11.409Z,99.90
2023-05-11T05:29:15.063Z,96.40
2023-05-11T05:34:19.296Z,93.10
2023-05-11T05:39:24.968Z,87.60
2023-05-11T05:44:28.635Z,81.00
2023-05-11T05:49:32.525Z,77.70
2023-05-11T05:54:37.795Z,75.90
2023-05-11T05:59:41.319Z,73.20
2023-05-11T06:04:45.935Z,70.30
2023-05-11T06:09:50.780Z,70.80
2023-05-11T06:14:54.164Z,69.00
2023-05-11T06:19:57.580Z,67.10
2023-05-11T06:25:06.750Z,67.90
2023-05-11T06:30:11.373Z,65.80
2023-05-11T06:35:17.162Z,62.10
2023-05-11T06:40:23.827Z,58.10
2023-05-11T06:45:27.255Z,59.50
2023-05-11T06:50:31.466Z,58.10
2023-05-11T06:55:36.204Z,55.70
2023-05-11T07:00:39.722Z,56.20
2023-05-11T07:05:43.072Z,56.40
2023-05-11T07:10:47.911Z,57.60
2023-05-11T07:15:51.722Z,55.00
2023-05-11T07:20:55.033Z,52.70
2023-05-11T07:25:59.699Z,57.30
2023-05-11T07:31:04.637Z,53.70
2023-05-11T07:36:08.564Z,51.40
2023-05-11T07:41:13.316Z,50.20
2023-05-11T07:46:17.048Z,49.30
2023-05-11T07:51:20.829Z,50.50
2023-05-11T07:56:26.630Z,52.10
2023-05-11T08:01:29.988Z,51.30
2023-05-11T08:06:33.313Z,51.40
2023-05-11T08:11:38.096Z,52.50
2023-05-11T08:16:41.714Z,51.40
2023-05-11T08:21:46.887Z,50.50
2023-05-11T08:26:52.040Z,52.20
2023-05-11T08:31:55.574Z,52.60
2023-05-11T08:37:02.028Z,50.90
2023-05-11T08:42:07.806Z,48.80
2023-05-11T08:47:22.496Z,50.60
2023-05-11T08:52:28.032Z,52.70
2023-05-11T08:57:34.749Z,52.60
2023-05-11T09:02:38.907Z,49.90
2023-05-11T09:07:44.380Z,50.00
2023-05-11T09:12:49.534Z,50.10
2023-05-11T09:17:53.045Z,48.30
2023-05-11T09:22:56.534Z,49.60
2023-05-11T09:28:01.325Z,48.80
2023-05-11T09:33:04.903Z,47.10
2023-05-11T09:38:10.040Z,47.40
2023-05-11T09:43:20.085Z,44.90
2023-05-11T09:48:29.610Z,45.10
2023-05-11T09:53:38.718Z,46.20
2023-05-11T09:58:48.489Z,45.30
2023-05-11T10:04:05.823Z,45.60
2023-05-11T10:09:22.570Z,44.40
2023-05-11T10:14:29.337Z,42.10
2023-05-11T10:19:33.472Z,43.70
2023-05-11T10:24:37.456Z,43.00
2023-05-11T10:29:43.589Z,45.90
2023-05-11T10:34:48.277Z,47.80
2023-05-11T10:39:52.262Z,49.40
2023-05-11T10:45:08.004Z,47.60
2023-05-11T10:50:42.991Z,44.90
2023-05-11T10:56:13.441Z,41.70
2023-05-11T11:01:31.037Z,41.60
2023-05-11T11:06:37.073Z,41.60
2023-05-11T11:11:42.667Z,44.00
2023-05-11T11:17:19.943Z,41.80
2023-05-11T11:22:47.600Z,41.60
2023-05-11T11:27:58.600Z,42.70
2023-05-11T11:33:33.750Z,41.00
2023-05-11T11:44:22.188Z,45.30
2023-05-11T11:49:27.580Z,43.90
2023-05-11T11:54:41.261Z,45.80
2023-05-11T11:59:47.918Z,47.00
2023-05-11T12:04:56.842Z,51.20
2023-05-11T12:10:03.952Z,50.10
2023-05-11T12:15:22.046Z,52.10
2023-05-11T12:20:26.046Z,53.50
2023-05-11T12:25:29.419Z,54.00
2023-05-11T12:30:34.649Z,53.50
2023-05-11T12:35:40.420Z,53.00
2023-05-11T12:40:47.937Z,53.30
2023-05-11T12:45:52.907Z,51.90
2023-05-11T12:50:58.405Z,50.70
2023-05-11T12:56:02.164Z,48.70
2023-05-11T13:01:09.638Z,48.40
2023-05-11T13:06:13.880Z,49.70
2023-05-11T13:11:17.812Z,52.30
2023-05-11T13:16:27.460Z,50.90
2023-05-11T13:21:33.441Z,52.10
2023-05-11T13:26:37.254Z,49.30
2023-05-11T13:31:46.475Z,47.20
2023-05-11T13:36:50.338Z,47.00
2023-05-11T13:41:55.917Z,47.40
2023-05-11T13:47:01.660Z,46.80
2023-05-11T13:52:05.784Z,47.10
2023-05-11T13:57:09.368Z,45.70
2023-05-11T14:02:14.632Z,44.10
2023-05-11T14:07:18.110Z,47.20
2023-05-11T14:12:22.192Z,45.60
2023-05-11T14:17:27.022Z,44.80
2023-05-11T14:22:30.987Z,43.90
2023-05-11T14:27:34.370Z,44.00
2023-05-11T14:32:39.145Z,40.60
2023-05-11T14:37:42.510Z,41.20
2023-05-11T14:42:45.841Z,40.70
2023-05-11T14:47:51.040Z,43.80
2023-05-11T14:52:54.855Z,41.60
2023-05-11T14:57:58.249Z,41.80
2023-05-11T15:03:03.147Z,44.10
2023-05-11T15:08:15.336Z,46.00
2023-05-11T15:13:25.605Z,46.10
2023-05-11T15:18:30.504Z,47.20
2023-05-11T15:23:33.926Z,48.40
2023-05-11T15:28:37.317Z,47.70
2023-05-11T15:33:42.044Z,45.70
2023-05-11T15:38:45.447Z,45.40
2023-05-11T15:43:48.842Z,45.10
2023-05-11T15:48:53.457Z,45.80
2023-05-11T15:53:56.841Z,46.20
2023-05-11T15:59:00.330Z,46.70
2023-05-11T16:04:05.506Z,46.60
2023-05-11T16:09:10.128Z,47.60
2023-05-11T16:14:13.601Z,48.50
2023-05-11T16:19:18.394Z,48.80
2023-05-11T16:24:21.788Z,49.60
2023-05-11T16:29:26.735Z,50.30
2023-05-11T16:34:31.866Z,50.90
2023-05-11T16:39:35.748Z,51.10
2023-05-11T16:44:39.495Z,52.00
2023-05-11T16:49:44.426Z,53.60
2023-05-11T16:54:48.149Z,55.70
2023-05-11T16:59:51.986Z,56.10
2023-05-11T17:04:56.831Z,56.60
2023-05-11T17:10:00.484Z,56.90
2023-05-11T17:15:09.588Z,56.50
2023-05-11T17:20:15.818Z,56.80
2023-05-11T17:25:19.435Z,57.60
2023-05-11T17:30:30.054Z,56.70
2023-05-11T17:35:40.915Z,55.60
2023-05-11T17:40:45.003Z,54.70
2023-05-11T17:45:48.370Z,55.00
2023-05-11T17:50:53.580Z,54.20
2023-05-11T17:55:58.582Z,54.50
2023-05-11T18:01:06.321Z,55.00
2023-05-11T18:06:11.605Z,54.00
2023-05-11T18:11:15.019Z,55.00
2023-05-11T18:16:18.451Z,54.60
2023-05-11T18:21:23.477Z,55.40
2023-05-11T18:26:27.038Z,55.60
2023-05-11T18:31:31.049Z,54.70
2023-05-11T18:36:35.818Z,55.80
2023-05-11T18:41:39.247Z,56.30
2023-05-11T18:46:42.792Z,57.20
2023-05-11T18:51:47.603Z,58.10
2023-05-11T18:56:51.345Z,58.30
2023-05-11T19:01:54.721Z,59.30
2023-05-11T19:06:59.616Z,59.20
2023-05-11T19:12:03.857Z,59.70
2023-05-11T19:17:07.231Z,59.90
2023-05-11T19:22:13.215Z,60.90
2023-05-11T19:27:17.315Z,61.30
2023-05-11T19:32:21.884Z,61.90
2023-05-11T19:37:27.145Z,62.40
2023-05-11T19:42:39.532Z,62.30
2023-05-11T19:47:43.318Z,63.20
2023-05-11T19:52:48.143Z,63.20
2023-05-11T19:57:51.982Z,63.70
2023-05-11T20:02:57.338Z,64.00
2023-05-11T20:08:03.071Z,64.00
2023-05-11T20:13:08.101Z,64.10
2023-05-11T20:18:11.770Z,64.90
2023-05-11T20:23:16.776Z,66.00
2023-05-11T20:28:21.483Z,67.20
2023-05-11T20:38:33.299Z,69.00
2023-05-11T20:43:36.647Z,70.50
2023-05-11T20:48:41.750Z,72.00
2023-05-11T20:53:47.616Z,71.40
2023-05-11T20:58:51.384Z,72.80
2023-05-11T21:03:54.710Z,74.00
2023-05-11T21:08:59.534Z,73.70
2023-05-11T21:14:03.407Z,74.10
2023-05-11T21:19:07.142Z,74.70
2023-05-11T21:24:14.429Z,74.80
2023-05-11T21:29:18.225Z,78.00
2023-05-11T21:34:22.415Z,79.60
2023-05-11T21:39:27.408Z,77.60
2023-05-11T21:44:30.884Z,77.40
2023-05-11T21:49:36.348Z,78.00
2023-05-11T21:54:41.058Z,78.90
2023-05-11T21:59:44.683Z,79.30
2023-05-11T22:04:48.091Z,79.80
2023-05-11T22:09:52.887Z,80.10
2023-05-11T22:14:56.573Z,80.00
2023-05-11T22:19:59.902Z,80.20
2023-05-11T22:25:05.962Z,80.00
2023-05-11T22:30:10.617Z,80.40
2023-05-11T22:35:14.365Z,79.80
2023-05-11T22:40:19.605Z,80.70
2023-05-11T22:45:23.242Z,80.00
2023-05-11T22:50:26.793Z,80.50
2023-05-11T22:55:31.991Z,79.40
2023-05-11T23:00:35.769Z,78.80
2023-05-11T23:27:26.663Z,75.90
2023-05-11T23:32:31.160Z,75.40
2023-05-11T23:37:35.773Z,75.00
2023-05-11T23:42:40.719Z,75.90
2023-05-11T23:47:44.231Z,76.80
2023-05-11T23:52:47.888Z,77.30
2023-05-11T23:57:52.775Z,78.00
